sensor_id;sensor_type;location;lat;lon;timestamp;P1;durP1;ratioP1;P2;durP2;ratioP2
3280;SDS011;1652;51.318;6.202;2023-06-01T00:02:11;16.33;;;7.37;;
3280;SDS011;1652;51.318;6.202;2023-06-01T00:04:38;9.53;;;6.80;;
3280;SDS011;1652;51.318;6.202;2023-06-01T00:07:07;9.23;;;7.60;;
3280;SDS011;1652;51.318;6.202;2023-06-01T00:09:35;13.00;;;7.73;;
3280;SDS011;1652;51.318;6.202;2023-06-01T00:12:03;10.47;;;7.83;;
3280;SDS011;1652;51.318;6.202;2023-06-01T00:14:32;20.17;;;8.47;;
3280;SDS011;1652;51.318;6.202;2023-06-01T00:16:59;24.40;;;8.17;;
3280;SDS011;1652;51.318;6.202;2023-06-01T00:19:26;9.60;;;7.50;;
3280;SDS011;1652;51.318;6.202;2023-06-01T00:21:54;11.70;;;7.40;;
3280;SDS011;1652;51.318;6.202;2023-06-01T00:24:22;15.43;;;7.63;;
3280;SDS011;1652;51.318;6.202;2023-06-01T00:26:49;16.90;;;8.57;;
3280;SDS011;1652;51.318;6.202;2023-06-01T00:29:16;11.73;;;7.50;;
3280;SDS011;1652;51.318;6.202;2023-06-01T00:31:43;17.37;;;8.50;;
3280;SDS011;1652;51.318;6.202;2023-06-01T00:34:11;12.97;;;8.47;;
3280;SDS011;1652;51.318;6.202;2023-06-01T00:36:38;12.67;;;8.70;;
3280;SDS011;1652;51.318;6.202;2023-06-01T00:39:05;20.33;;;7.93;;
3280;SDS011;1652;51.318;6.202;2023-06-01T00:41:32;20.53;;;8.20;;
3280;SDS011;1652;51.318;6.202;2023-06-01T00:44:00;8.97;;;7.97;;
3280;SDS011;1652;51.318;6.202;2023-06-01T00:46:27;11.93;;;8.37;;
3280;SDS011;1652;51.318;6.202;2023-06-01T00:48:57;16.03;;;9.40;;
3280;SDS011;1652;51.318;6.202;2023-06-01T00:51:24;15.90;;;10.43;;
3280;SDS011;1652;51.318;6.202;2023-06-01T00:53:52;16.30;;;9.20;;
3280;SDS011;1652;51.318;6.202;2023-06-01T00:56:19;18.60;;;9.93;;
3280;SDS011;1652;51.318;6.202;2023-06-01T00:58:47;13.60;;;8.90;;
3280;SDS011;1652;51.318;6.202;2023-06-01T01:01:15;13.10;;;9.90;;
3280;SDS011;1652;51.318;6.202;2023-06-01T01:03:49;15.00;;;9.47;;
3280;SDS011;1652;51.318;6.202;2023-06-01T01:09:22;18.10;;;10.00;;
3280;SDS011;1652;51.318;6.202;2023-06-01T01:11:52;21.47;;;11.03;;
3280;SDS011;1652;51.318;6.202;2023-06-01T01:14:28;11.10;;;9.27;;
3280;SDS011;1652;51.318;6.202;2023-06-01T01:17:09;28.00;;;9.97;;
3280;SDS011;1652;51.318;6.202;2023-06-01T01:25:21;21.30;;;11.60;;
3280;SDS011;1652;51.318;6.202;2023-06-01T01:31:09;22.83;;;11.30;;
3280;SDS011;1652;51.318;6.202;2023-06-01T01:33:39;15.93;;;10.23;;
3280;SDS011;1652;51.318;6.202;2023-06-01T01:36:08;24.43;;;11.43;;
3280;SDS011;1652;51.318;6.202;2023-06-01T01:38:36;20.43;;;10.67;;
3280;SDS011;1652;51.318;6.202;2023-06-01T01:41:04;12.30;;;10.83;;
3280;SDS011;1652;51.318;6.202;2023-06-01T01:43:31;14.77;;;10.40;;
3280;SDS011;1652;51.318;6.202;2023-06-01T01:46:11;17.97;;;10.57;;
3280;SDS011;1652;51.318;6.202;2023-06-01T01:49:11;18.93;;;10.93;;
3280;SDS011;1652;51.318;6.202;2023-06-01T01:51:45;22.73;;;11.50;;
3280;SDS011;1652;51.318;6.202;2023-06-01T01:54:27;25.97;;;12.43;;
3280;SDS011;1652;51.318;6.202;2023-06-01T01:56:56;23.97;;;12.40;;
3280;SDS011;1652;51.318;6.202;2023-06-01T01:59:24;18.57;;;10.90;;
3280;SDS011;1652;51.318;6.202;2023-06-01T02:01:53;23.43;;;12.40;;
3280;SDS011;1652;51.318;6.202;2023-06-01T02:04:21;20.70;;;11.63;;
3280;SDS011;1652;51.318;6.202;2023-06-01T02:06:48;23.27;;;12.80;;
3280;SDS011;1652;51.318;6.202;2023-06-01T02:09:15;22.03;;;13.10;;
3280;SDS011;1652;51.318;6.202;2023-06-01T02:11:42;25.00;;;12.80;;
3280;SDS011;1652;51.318;6.202;2023-06-01T02:14:09;20.47;;;13.00;;
3280;SDS011;1652;51.318;6.202;2023-06-01T02:16:36;24.80;;;13.60;;
3280;SDS011;1652;51.318;6.202;2023-06-01T02:19:04;19.97;;;11.97;;
3280;SDS011;1652;51.318;6.202;2023-06-01T02:21:31;25.33;;;13.37;;
3280;SDS011;1652;51.318;6.202;2023-06-01T02:23:58;23.80;;;12.57;;
3280;SDS011;1652;51.318;6.202;2023-06-01T02:26:31;27.10;;;14.20;;
3280;SDS011;1652;51.318;6.202;2023-06-01T02:28:58;25.13;;;13.70;;
3280;SDS011;1652;51.318;6.202;2023-06-01T02:31:25;29.90;;;13.87;;
3280;SDS011;1652;51.318;6.202;2023-06-01T02:33:52;25.73;;;14.10;;
3280;SDS011;1652;51.318;6.202;2023-06-01T02:36:19;32.63;;;14.43;;
3280;SDS011;1652;51.318;6.202;2023-06-01T02:38:47;27.23;;;14.70;;
3280;SDS011;1652;51.318;6.202;2023-06-01T02:41:14;34.00;;;14.50;;
3280;SDS011;1652;51.318;6.202;2023-06-01T02:43:41;23.60;;;14.90;;
3280;SDS011;1652;51.318;6.202;2023-06-01T02:46:08;27.40;;;14.30;;
3280;SDS011;1652;51.318;6.202;2023-06-01T02:48:35;32.27;;;15.90;;
3280;SDS011;1652;51.318;6.202;2023-06-01T02:51:02;30.30;;;15.23;;
3280;SDS011;1652;51.318;6.202;2023-06-01T02:53:29;26.53;;;14.60;;
3280;SDS011;1652;51.318;6.202;2023-06-01T02:55:57;45.83;;;15.23;;
3280;SDS011;1652;51.318;6.202;2023-06-01T02:58:24;30.70;;;14.83;;
3280;SDS011;1652;51.318;6.202;2023-06-01T03:00:51;25.20;;;13.60;;
3280;SDS011;1652;51.318;6.202;2023-06-01T03:03:18;34.20;;;15.70;;
3280;SDS011;1652;51.318;6.202;2023-06-01T03:05:45;36.50;;;15.23;;
3280;SDS011;1652;51.318;6.202;2023-06-01T03:08:14;33.73;;;14.13;;
3280;SDS011;1652;51.318;6.202;2023-06-01T03:10:43;31.43;;;15.67;;
3280;SDS011;1652;51.318;6.202;2023-06-01T03:13:11;27.70;;;15.57;;
3280;SDS011;1652;51.318;6.202;2023-06-01T03:15:38;34.03;;;14.83;;
3280;SDS011;1652;51.318;6.202;2023-06-01T03:18:05;22.23;;;13.60;;
3280;SDS011;1652;51.318;6.202;2023-06-01T03:20:33;31.60;;;15.33;;
3280;SDS011;1652;51.318;6.202;2023-06-01T03:23:00;26.03;;;14.33;;
3280;SDS011;1652;51.318;6.202;2023-06-01T03:25:27;34.23;;;17.23;;
3280;SDS011;1652;51.318;6.202;2023-06-01T03:27:54;27.87;;;14.70;;
3280;SDS011;1652;51.318;6.202;2023-06-01T03:30:21;26.30;;;15.80;;
3280;SDS011;1652;51.318;6.202;2023-06-01T03:32:48;27.47;;;15.83;;
3280;SDS011;1652;51.318;6.202;2023-06-01T03:35:16;42.13;;;16.50;;
3280;SDS011;1652;51.318;6.202;2023-06-01T03:37:43;33.93;;;16.60;;
3280;SDS011;1652;51.318;6.202;2023-06-01T03:40:13;32.37;;;17.10;;
3280;SDS011;1652;51.318;6.202;2023-06-01T03:42:41;36.70;;;15.13;;
3280;SDS011;1652;51.318;6.202;2023-06-01T03:45:12;26.43;;;13.17;;
3280;SDS011;1652;51.318;6.202;2023-06-01T03:47:41;21.50;;;14.10;;
3280;SDS011;1652;51.318;6.202;2023-06-01T03:50:10;30.80;;;13.93;;
3280;SDS011;1652;51.318;6.202;2023-06-01T03:52:37;21.20;;;14.00;;
3280;SDS011;1652;51.318;6.202;2023-06-01T03:55:18;16.53;;;12.77;;
3280;SDS011;1652;51.318;6.202;2023-06-01T03:57:46;21.73;;;13.47;;
3280;SDS011;1652;51.318;6.202;2023-06-01T04:00:13;23.10;;;12.80;;
3280;SDS011;1652;51.318;6.202;2023-06-01T04:02:47;25.50;;;13.60;;
3280;SDS011;1652;51.318;6.202;2023-06-01T04:05:16;23.83;;;12.70;;
3280;SDS011;1652;51.318;6.202;2023-06-01T04:07:44;24.10;;;12.40;;
3280;SDS011;1652;51.318;6.202;2023-06-01T04:10:11;23.77;;;12.90;;
3280;SDS011;1652;51.318;6.202;2023-06-01T04:12:40;20.27;;;11.93;;
3280;SDS011;1652;51.318;6.202;2023-06-01T04:15:09;20.10;;;11.50;;
3280;SDS011;1652;51.318;6.202;2023-06-01T04:17:37;21.27;;;12.07;;
3280;SDS011;1652;51.318;6.202;2023-06-01T04:20:05;19.30;;;13.00;;
3280;SDS011;1652;51.318;6.202;2023-06-01T04:22:38;28.43;;;11.57;;
3280;SDS011;1652;51.318;6.202;2023-06-01T04:25:06;20.57;;;11.60;;
3280;SDS011;1652;51.318;6.202;2023-06-01T04:27:47;19.87;;;11.40;;
3280;SDS011;1652;51.318;6.202;2023-06-01T04:30:15;20.40;;;11.20;;
3280;SDS011;1652;51.318;6.202;2023-06-01T04:32:43;17.73;;;11.73;;
3280;SDS011;1652;51.318;6.202;2023-06-01T04:35:12;17.50;;;11.27;;
3280;SDS011;1652;51.318;6.202;2023-06-01T04:37:40;17.97;;;10.47;;
3280;SDS011;1652;51.318;6.202;2023-06-01T04:40:09;18.30;;;12.13;;
3280;SDS011;1652;51.318;6.202;2023-06-01T04:42:37;17.70;;;12.70;;
3280;SDS011;1652;51.318;6.202;2023-06-01T04:45:08;15.93;;;10.50;;
3280;SDS011;1652;51.318;6.202;2023-06-01T04:47:36;19.67;;;11.60;;
3280;SDS011;1652;51.318;6.202;2023-06-01T04:50:07;23.97;;;11.43;;
3280;SDS011;1652;51.318;6.202;2023-06-01T04:52:36;15.60;;;10.50;;
3280;SDS011;1652;51.318;6.202;2023-06-01T04:55:04;12.90;;;10.57;;
3280;SDS011;1652;51.318;6.202;2023-06-01T04:57:33;11.27;;;9.90;;
3280;SDS011;1652;51.318;6.202;2023-06-01T05:00:02;14.93;;;9.97;;
3280;SDS011;1652;51.318;6.202;2023-06-01T05:02:36;12.60;;;9.83;;
3280;SDS011;1652;51.318;6.202;2023-06-01T05:05:04;14.27;;;9.47;;
3280;SDS011;1652;51.318;6.202;2023-06-01T05:07:32;14.50;;;10.60;;
3280;SDS011;1652;51.318;6.202;2023-06-01T05:09:59;10.40;;;9.37;;
3280;SDS011;1652;51.318;6.202;2023-06-01T05:12:31;15.30;;;9.67;;
3280;SDS011;1652;51.318;6.202;2023-06-01T05:15:02;14.27;;;9.47;;
3280;SDS011;1652;51.318;6.202;2023-06-01T05:17:30;10.17;;;9.17;;
3280;SDS011;1652;51.318;6.202;2023-06-01T05:19:58;17.20;;;9.70;;
3280;SDS011;1652;51.318;6.202;2023-06-01T05:22:25;23.03;;;9.87;;
3280;SDS011;1652;51.318;6.202;2023-06-01T05:24:52;16.70;;;10.60;;
3280;SDS011;1652;51.318;6.202;2023-06-01T05:27:19;16.07;;;9.23;;
3280;SDS011;1652;51.318;6.202;2023-06-01T05:29:46;16.80;;;9.90;;
3280;SDS011;1652;51.318;6.202;2023-06-01T05:32:13;14.97;;;9.90;;
3280;SDS011;1652;51.318;6.202;2023-06-01T05:34:40;19.10;;;10.90;;
3280;SDS011;1652;51.318;6.202;2023-06-01T05:37:07;16.30;;;10.30;;
3280;SDS011;1652;51.318;6.202;2023-06-01T05:39:34;16.53;;;10.20;;
3280;SDS011;1652;51.318;6.202;2023-06-01T05:42:01;17.90;;;11.93;;
3280;SDS011;1652;51.318;6.202;2023-06-01T05:44:28;17.33;;;11.60;;
3280;SDS011;1652;51.318;6.202;2023-06-01T05:46:54;17.43;;;10.10;;
3280;SDS011;1652;51.318;6.202;2023-06-01T05:49:22;19.30;;;10.17;;
3280;SDS011;1652;51.318;6.202;2023-06-01T05:51:49;17.37;;;10.07;;
3280;SDS011;1652;51.318;6.202;2023-06-01T05:54:16;21.07;;;10.07;;
3280;SDS011;1652;51.318;6.202;2023-06-01T05:56:43;14.37;;;9.93;;
3280;SDS011;1652;51.318;6.202;2023-06-01T05:59:11;13.63;;;9.93;;
3280;SDS011;1652;51.318;6.202;2023-06-01T06:01:38;12.10;;;9.20;;
3280;SDS011;1652;51.318;6.202;2023-06-01T06:04:05;11.50;;;8.60;;
3280;SDS011;1652;51.318;6.202;2023-06-01T06:06:32;11.50;;;9.50;;
3280;SDS011;1652;51.318;6.202;2023-06-01T06:08:59;16.57;;;9.23;;
3280;SDS011;1652;51.318;6.202;2023-06-01T06:11:26;14.53;;;10.93;;
3280;SDS011;1652;51.318;6.202;2023-06-01T06:13:53;17.27;;;9.27;;
3280;SDS011;1652;51.318;6.202;2023-06-01T06:16:20;12.33;;;8.77;;
3280;SDS011;1652;51.318;6.202;2023-06-01T06:18:47;14.47;;;8.47;;
3280;SDS011;1652;51.318;6.202;2023-06-01T06:21:14;15.20;;;9.50;;
3280;SDS011;1652;51.318;6.202;2023-06-01T06:23:44;12.87;;;9.30;;
3280;SDS011;1652;51.318;6.202;2023-06-01T06:26:11;19.67;;;10.30;;
3280;SDS011;1652;51.318;6.202;2023-06-01T06:28:38;11.60;;;9.60;;
3280;SDS011;1652;51.318;6.202;2023-06-01T06:31:05;13.70;;;9.40;;
3280;SDS011;1652;51.318;6.202;2023-06-01T06:33:32;12.73;;;9.17;;
3280;SDS011;1652;51.318;6.202;2023-06-01T06:35:59;16.23;;;9.53;;
3280;SDS011;1652;51.318;6.202;2023-06-01T06:38:26;26.63;;;11.43;;
3280;SDS011;1652;51.318;6.202;2023-06-01T06:40:53;18.83;;;10.13;;
3280;SDS011;1652;51.318;6.202;2023-06-01T06:43:20;14.73;;;9.43;;
3280;SDS011;1652;51.318;6.202;2023-06-01T06:45:47;9.30;;;8.50;;
3280;SDS011;1652;51.318;6.202;2023-06-01T06:48:14;13.53;;;9.10;;
3280;SDS011;1652;51.318;6.202;2023-06-01T06:50:41;9.80;;;8.80;;
3280;SDS011;1652;51.318;6.202;2023-06-01T06:53:11;11.40;;;10.30;;
3280;SDS011;1652;51.318;6.202;2023-06-01T06:55:38;11.47;;;9.33;;
3280;SDS011;1652;51.318;6.202;2023-06-01T06:58:05;16.63;;;9.30;;
3280;SDS011;1652;51.318;6.202;2023-06-01T07:00:32;11.33;;;9.40;;
3280;SDS011;1652;51.318;6.202;2023-06-01T07:02:59;15.40;;;9.30;;
3280;SDS011;1652;51.318;6.202;2023-06-01T07:05:27;10.07;;;9.03;;
3280;SDS011;1652;51.318;6.202;2023-06-01T07:07:53;12.23;;;9.00;;
3280;SDS011;1652;51.318;6.202;2023-06-01T07:10:23;12.80;;;9.13;;
3280;SDS011;1652;51.318;6.202;2023-06-01T07:12:51;26.33;;;9.50;;
3280;SDS011;1652;51.318;6.202;2023-06-01T07:15:18;13.03;;;10.20;;
3280;SDS011;1652;51.318;6.202;2023-06-01T07:17:45;19.33;;;9.70;;
3280;SDS011;1652;51.318;6.202;2023-06-01T07:20:12;15.93;;;10.80;;
3280;SDS011;1652;51.318;6.202;2023-06-01T07:22:39;14.17;;;9.20;;
3280;SDS011;1652;51.318;6.202;2023-06-01T07:25:07;16.73;;;9.13;;
3280;SDS011;1652;51.318;6.202;2023-06-01T07:27:35;15.10;;;10.13;;
3280;SDS011;1652;51.318;6.202;2023-06-01T07:30:05;16.03;;;9.73;;
3280;SDS011;1652;51.318;6.202;2023-06-01T07:32:33;19.33;;;10.33;;
3280;SDS011;1652;51.318;6.202;2023-06-01T07:35:00;13.77;;;9.00;;
3280;SDS011;1652;51.318;6.202;2023-06-01T07:37:28;11.60;;;9.10;;
3280;SDS011;1652;51.318;6.202;2023-06-01T07:39:55;13.97;;;9.70;;
3280;SDS011;1652;51.318;6.202;2023-06-01T07:42:21;9.93;;;9.03;;
3280;SDS011;1652;51.318;6.202;2023-06-01T07:44:48;11.10;;;9.10;;
3280;SDS011;1652;51.318;6.202;2023-06-01T07:47:16;18.73;;;12.50;;
3280;SDS011;1652;51.318;6.202;2023-06-01T07:49:43;14.70;;;10.50;;
3280;SDS011;1652;51.318;6.202;2023-06-01T07:52:10;17.80;;;9.57;;
3280;SDS011;1652;51.318;6.202;2023-06-01T07:54:37;15.17;;;10.10;;
3280;SDS011;1652;51.318;6.202;2023-06-01T07:57:05;12.00;;;8.60;;
3280;SDS011;1652;51.318;6.202;2023-06-01T07:59:32;11.60;;;10.40;;
3280;SDS011;1652;51.318;6.202;2023-06-01T08:01:59;14.70;;;11.60;;
3280;SDS011;1652;51.318;6.202;2023-06-01T08:04:27;17.00;;;9.70;;
3280;SDS011;1652;51.318;6.202;2023-06-01T08:07:00;36.20;;;11.50;;
3280;SDS011;1652;51.318;6.202;2023-06-01T08:09:30;13.17;;;9.87;;
3280;SDS011;1652;51.318;6.202;2023-06-01T08:11:57;13.00;;;10.80;;
3280;SDS011;1652;51.318;6.202;2023-06-01T08:14:24;12.07;;;10.07;;
3280;SDS011;1652;51.318;6.202;2023-06-01T08:16:51;13.53;;;9.93;;
3280;SDS011;1652;51.318;6.202;2023-06-01T08:19:18;19.63;;;9.60;;
3280;SDS011;1652;51.318;6.202;2023-06-01T08:21:45;18.53;;;10.67;;
3280;SDS011;1652;51.318;6.202;2023-06-01T08:24:12;31.47;;;10.10;;
3280;SDS011;1652;51.318;6.202;2023-06-01T08:26:39;15.83;;;10.37;;
3280;SDS011;1652;51.318;6.202;2023-06-01T08:29:07;11.07;;;9.50;;
3280;SDS011;1652;51.318;6.202;2023-06-01T08:31:34;22.93;;;16.13;;
3280;SDS011;1652;51.318;6.202;2023-06-01T08:34:03;13.43;;;9.93;;
3280;SDS011;1652;51.318;6.202;2023-06-01T08:36:31;12.53;;;9.53;;
3280;SDS011;1652;51.318;6.202;2023-06-01T08:38:57;12.60;;;9.80;;
3280;SDS011;1652;51.318;6.202;2023-06-01T08:41:26;13.03;;;10.40;;
3280;SDS011;1652;51.318;6.202;2023-06-01T08:44:05;12.33;;;9.30;;
3280;SDS011;1652;51.318;6.202;2023-06-01T08:46:34;13.00;;;9.43;;
3280;SDS011;1652;51.318;6.202;2023-06-01T08:49:02;15.53;;;10.40;;
3280;SDS011;1652;51.318;6.202;2023-06-01T08:51:33;20.17;;;10.87;;
3280;SDS011;1652;51.318;6.202;2023-06-01T08:54:04;17.83;;;10.17;;
3280;SDS011;1652;51.318;6.202;2023-06-01T08:56:35;12.80;;;9.67;;
3280;SDS011;1652;51.318;6.202;2023-06-01T08:59:03;15.30;;;9.63;;
3280;SDS011;1652;51.318;6.202;2023-06-01T09:01:30;18.93;;;10.40;;
3280;SDS011;1652;51.318;6.202;2023-06-01T09:03:57;10.93;;;9.57;;
3280;SDS011;1652;51.318;6.202;2023-06-01T09:06:24;11.97;;;9.10;;
3280;SDS011;1652;51.318;6.202;2023-06-01T09:08:52;16.97;;;9.60;;
3280;SDS011;1652;51.318;6.202;2023-06-01T09:11:19;14.23;;;10.40;;
3280;SDS011;1652;51.318;6.202;2023-06-01T09:13:47;15.93;;;9.70;;
3280;SDS011;1652;51.318;6.202;2023-06-01T09:16:14;14.70;;;9.70;;
3280;SDS011;1652;51.318;6.202;2023-06-01T09:18:53;11.83;;;9.67;;
3280;SDS011;1652;51.318;6.202;2023-06-01T09:21:21;14.17;;;9.67;;
3280;SDS011;1652;51.318;6.202;2023-06-01T09:23:48;16.97;;;10.87;;
3280;SDS011;1652;51.318;6.202;2023-06-01T09:26:17;11.53;;;9.60;;
3280;SDS011;1652;51.318;6.202;2023-06-01T09:31:37;21.13;;;12.67;;
3280;SDS011;1652;51.318;6.202;2023-06-01T09:34:10;11.93;;;10.70;;
3280;SDS011;1652;51.318;6.202;2023-06-01T09:36:39;21.20;;;10.20;;
3280;SDS011;1652;51.318;6.202;2023-06-01T09:39:09;15.10;;;10.40;;
3280;SDS011;1652;51.318;6.202;2023-06-01T09:44:35;14.63;;;10.77;;
3280;SDS011;1652;51.318;6.202;2023-06-01T09:47:04;19.07;;;12.43;;
3280;SDS011;1652;51.318;6.202;2023-06-01T09:49:34;22.63;;;10.70;;
3280;SDS011;1652;51.318;6.202;2023-06-01T09:54:33;14.33;;;9.90;;
3280;SDS011;1652;51.318;6.202;2023-06-01T09:57:05;13.97;;;10.47;;
3280;SDS011;1652;51.318;6.202;2023-06-01T10:02:05;23.33;;;10.60;;
3280;SDS011;1652;51.318;6.202;2023-06-01T10:04:34;18.07;;;10.70;;
3280;SDS011;1652;51.318;6.202;2023-06-01T10:07:05;11.60;;;9.50;;
3280;SDS011;1652;51.318;6.202;2023-06-01T10:09:34;13.97;;;9.60;;
3280;SDS011;1652;51.318;6.202;2023-06-01T10:12:05;16.73;;;11.03;;
3280;SDS011;1652;51.318;6.202;2023-06-01T10:14:33;13.80;;;9.30;;
3280;SDS011;1652;51.318;6.202;2023-06-01T10:17:03;16.27;;;10.53;;
3280;SDS011;1652;51.318;6.202;2023-06-01T10:19:31;25.30;;;11.07;;
3280;SDS011;1652;51.318;6.202;2023-06-01T10:21:58;14.03;;;10.23;;
3280;SDS011;1652;51.318;6.202;2023-06-01T10:24:26;18.33;;;9.50;;
3280;SDS011;1652;51.318;6.202;2023-06-01T10:29:47;12.50;;;9.37;;
3280;SDS011;1652;51.318;6.202;2023-06-01T10:40:33;13.00;;;8.60;;
3280;SDS011;1652;51.318;6.202;2023-06-01T10:43:00;16.30;;;10.00;;
3280;SDS011;1652;51.318;6.202;2023-06-01T10:45:35;15.97;;;9.83;;
3280;SDS011;1652;51.318;6.202;2023-06-01T10:48:02;19.27;;;9.33;;
3280;SDS011;1652;51.318;6.202;2023-06-01T10:50:31;14.10;;;9.90;;
3280;SDS011;1652;51.318;6.202;2023-06-01T10:53:23;13.50;;;8.37;;
3280;SDS011;1652;51.318;6.202;2023-06-01T10:56:17;11.20;;;9.33;;
3280;SDS011;1652;51.318;6.202;2023-06-01T11:01:45;12.00;;;9.17;;
3280;SDS011;1652;51.318;6.202;2023-06-01T11:04:13;15.30;;;9.30;;
3280;SDS011;1652;51.318;6.202;2023-06-01T11:06:41;14.37;;;9.80;;
3280;SDS011;1652;51.318;6.202;2023-06-01T11:09:12;14.10;;;9.83;;
3280;SDS011;1652;51.318;6.202;2023-06-01T11:14:18;16.20;;;9.53;;
3280;SDS011;1652;51.318;6.202;2023-06-01T11:16:47;13.10;;;8.20;;
3280;SDS011;1652;51.318;6.202;2023-06-01T11:19:26;13.50;;;9.10;;
3280;SDS011;1652;51.318;6.202;2023-06-01T11:21:58;19.20;;;8.90;;
3280;SDS011;1652;51.318;6.202;2023-06-01T11:24:31;10.73;;;9.00;;
3280;SDS011;1652;51.318;6.202;2023-06-01T11:27:06;14.10;;;8.80;;
3280;SDS011;1652;51.318;6.202;2023-06-01T11:29:34;15.53;;;8.90;;
3280;SDS011;1652;51.318;6.202;2023-06-01T11:32:02;12.07;;;8.00;;
3280;SDS011;1652;51.318;6.202;2023-06-01T11:34:41;11.20;;;8.33;;
3280;SDS011;1652;51.318;6.202;2023-06-01T11:37:12;15.43;;;8.70;;
3280;SDS011;1652;51.318;6.202;2023-06-01T11:39:40;18.23;;;8.73;;
3280;SDS011;1652;51.318;6.202;2023-06-01T11:42:08;19.27;;;9.10;;
3280;SDS011;1652;51.318;6.202;2023-06-01T11:44:36;12.00;;;8.60;;
3280;SDS011;1652;51.318;6.202;2023-06-01T11:47:06;15.73;;;9.30;;
3280;SDS011;1652;51.318;6.202;2023-06-01T11:49:43;12.30;;;8.20;;
3280;SDS011;1652;51.318;6.202;2023-06-01T11:52:19;10.03;;;8.00;;
3280;SDS011;1652;51.318;6.202;2023-06-01T11:54:47;12.30;;;6.43;;
3280;SDS011;1652;51.318;6.202;2023-06-01T11:57:14;13.30;;;8.10;;
3280;SDS011;1652;51.318;6.202;2023-06-01T12:07:23;18.43;;;9.00;;
3280;SDS011;1652;51.318;6.202;2023-06-01T12:09:53;8.10;;;7.20;;
3280;SDS011;1652;51.318;6.202;2023-06-01T12:12:22;13.13;;;7.80;;
3280;SDS011;1652;51.318;6.202;2023-06-01T12:14:51;10.77;;;7.30;;
3280;SDS011;1652;51.318;6.202;2023-06-01T12:17:18;12.53;;;8.13;;
3280;SDS011;1652;51.318;6.202;2023-06-01T12:19:49;10.30;;;7.87;;
3280;SDS011;1652;51.318;6.202;2023-06-01T12:22:17;13.13;;;9.03;;
3280;SDS011;1652;51.318;6.202;2023-06-01T12:24:44;12.67;;;8.57;;
3280;SDS011;1652;51.318;6.202;2023-06-01T12:27:18;12.50;;;8.13;;
3280;SDS011;1652;51.318;6.202;2023-06-01T12:29:48;15.43;;;8.90;;
3280;SDS011;1652;51.318;6.202;2023-06-01T12:32:18;12.63;;;7.70;;
3280;SDS011;1652;51.318;6.202;2023-06-01T12:35:02;14.90;;;9.30;;
3280;SDS011;1652;51.318;6.202;2023-06-01T12:37:33;13.50;;;9.30;;
3280;SDS011;1652;51.318;6.202;2023-06-01T12:40:01;14.20;;;8.90;;
3280;SDS011;1652;51.318;6.202;2023-06-01T12:42:33;10.33;;;8.10;;
3280;SDS011;1652;51.318;6.202;2023-06-01T12:45:05;10.70;;;8.47;;
3280;SDS011;1652;51.318;6.202;2023-06-01T12:47:37;13.43;;;9.47;;
3280;SDS011;1652;51.318;6.202;2023-06-01T12:50:08;12.00;;;7.63;;
3280;SDS011;1652;51.318;6.202;2023-06-01T12:52:37;12.17;;;8.73;;
3280;SDS011;1652;51.318;6.202;2023-06-01T12:55:05;12.47;;;7.90;;
3280;SDS011;1652;51.318;6.202;2023-06-01T12:57:37;12.67;;;8.20;;
3280;SDS011;1652;51.318;6.202;2023-06-01T13:00:04;19.53;;;9.80;;
3280;SDS011;1652;51.318;6.202;2023-06-01T13:02:33;11.77;;;8.40;;
3280;SDS011;1652;51.318;6.202;2023-06-01T13:05:02;8.53;;;7.67;;
3280;SDS011;1652;51.318;6.202;2023-06-01T13:07:31;10.37;;;8.20;;
3280;SDS011;1652;51.318;6.202;2023-06-01T13:09:58;15.03;;;8.57;;
3280;SDS011;1652;51.318;6.202;2023-06-01T13:12:25;12.10;;;8.00;;
3280;SDS011;1652;51.318;6.202;2023-06-01T13:14:54;10.03;;;6.40;;
3280;SDS011;1652;51.318;6.202;2023-06-01T13:17:22;12.03;;;7.50;;
3280;SDS011;1652;51.318;6.202;2023-06-01T13:19:49;11.30;;;7.40;;
3280;SDS011;1652;51.318;6.202;2023-06-01T13:22:16;11.57;;;7.10;;
3280;SDS011;1652;51.318;6.202;2023-06-01T13:24:43;13.63;;;11.30;;
3280;SDS011;1652;51.318;6.202;2023-06-01T13:27:12;11.07;;;6.77;;
3280;SDS011;1652;51.318;6.202;2023-06-01T13:29:39;10.37;;;7.77;;
3280;SDS011;1652;51.318;6.202;2023-06-01T13:32:08;10.07;;;6.00;;
3280;SDS011;1652;51.318;6.202;2023-06-01T13:34:35;7.37;;;6.63;;
3280;SDS011;1652;51.318;6.202;2023-06-01T13:37:02;9.87;;;6.57;;
3280;SDS011;1652;51.318;6.202;2023-06-01T13:39:29;6.83;;;6.07;;
3280;SDS011;1652;51.318;6.202;2023-06-01T13:41:56;7.43;;;6.13;;
3280;SDS011;1652;51.318;6.202;2023-06-01T13:44:23;9.23;;;6.67;;
3280;SDS011;1652;51.318;6.202;2023-06-01T13:46:50;7.43;;;6.73;;
3280;SDS011;1652;51.318;6.202;2023-06-01T13:49:17;15.67;;;9.30;;
3280;SDS011;1652;51.318;6.202;2023-06-01T13:51:44;14.93;;;7.50;;
3280;SDS011;1652;51.318;6.202;2023-06-01T13:54:11;13.90;;;9.30;;
3280;SDS011;1652;51.318;6.202;2023-06-01T13:56:39;6.27;;;5.67;;
3280;SDS011;1652;51.318;6.202;2023-06-01T13:59:06;16.80;;;7.17;;
3280;SDS011;1652;51.318;6.202;2023-06-01T14:01:33;13.53;;;7.73;;
3280;SDS011;1652;51.318;6.202;2023-06-01T14:04:01;8.43;;;6.23;;
3280;SDS011;1652;51.318;6.202;2023-06-01T14:06:29;8.97;;;7.07;;
3280;SDS011;1652;51.318;6.202;2023-06-01T14:08:57;18.07;;;13.83;;
3280;SDS011;1652;51.318;6.202;2023-06-01T14:11:24;6.63;;;5.93;;
3280;SDS011;1652;51.318;6.202;2023-06-01T14:13:53;10.00;;;6.77;;
3280;SDS011;1652;51.318;6.202;2023-06-01T14:16:20;11.70;;;7.63;;
3280;SDS011;1652;51.318;6.202;2023-06-01T14:18:47;17.93;;;7.50;;
3280;SDS011;1652;51.318;6.202;2023-06-01T14:21:14;10.00;;;6.30;;
3280;SDS011;1652;51.318;6.202;2023-06-01T14:23:41;9.57;;;6.20;;
3280;SDS011;1652;51.318;6.202;2023-06-01T14:26:11;10.00;;;7.33;;
3280;SDS011;1652;51.318;6.202;2023-06-01T14:28:38;7.77;;;6.10;;
3280;SDS011;1652;51.318;6.202;2023-06-01T14:31:04;12.03;;;6.77;;
3280;SDS011;1652;51.318;6.202;2023-06-01T14:33:32;6.60;;;5.90;;
3280;SDS011;1652;51.318;6.202;2023-06-01T14:35:59;12.07;;;7.97;;
3280;SDS011;1652;51.318;6.202;2023-06-01T14:38:26;10.40;;;5.97;;
3280;SDS011;1652;51.318;6.202;2023-06-01T14:40:53;6.60;;;6.00;;
3280;SDS011;1652;51.318;6.202;2023-06-01T14:43:20;7.50;;;6.23;;
3280;SDS011;1652;51.318;6.202;2023-06-01T14:45:47;6.63;;;6.13;;
3280;SDS011;1652;51.318;6.202;2023-06-01T14:48:14;7.07;;;6.07;;
3280;SDS011;1652;51.318;6.202;2023-06-01T14:50:41;7.37;;;4.80;;
3280;SDS011;1652;51.318;6.202;2023-06-01T14:53:08;7.07;;;5.93;;
3280;SDS011;1652;51.318;6.202;2023-06-01T14:55:35;7.13;;;5.80;;
3280;SDS011;1652;51.318;6.202;2023-06-01T14:58:02;8.90;;;5.97;;
3280;SDS011;1652;51.318;6.202;2023-06-01T15:00:29;8.40;;;5.90;;
3280;SDS011;1652;51.318;6.202;2023-06-01T15:02:57;7.00;;;5.00;;
3280;SDS011;1652;51.318;6.202;2023-06-01T15:05:24;7.20;;;6.43;;
3280;SDS011;1652;51.318;6.202;2023-06-01T15:07:51;7.30;;;5.53;;
3280;SDS011;1652;51.318;6.202;2023-06-01T15:10:18;5.93;;;5.43;;
3280;SDS011;1652;51.318;6.202;2023-06-01T15:12:45;13.57;;;5.60;;
3280;SDS011;1652;51.318;6.202;2023-06-01T15:15:13;5.97;;;5.37;;
3280;SDS011;1652;51.318;6.202;2023-06-01T15:17:40;9.67;;;5.70;;
3280;SDS011;1652;51.318;6.202;2023-06-01T15:20:07;9.40;;;6.10;;
3280;SDS011;1652;51.318;6.202;2023-06-01T15:22:34;7.17;;;5.87;;
3280;SDS011;1652;51.318;6.202;2023-06-01T15:25:03;9.10;;;5.47;;
3280;SDS011;1652;51.318;6.202;2023-06-01T15:27:30;8.67;;;5.70;;
3280;SDS011;1652;51.318;6.202;2023-06-01T15:29:57;5.70;;;5.20;;
3280;SDS011;1652;51.318;6.202;2023-06-01T15:32:24;7.23;;;6.03;;
3280;SDS011;1652;51.318;6.202;2023-06-01T15:34:51;5.63;;;5.10;;
3280;SDS011;1652;51.318;6.202;2023-06-01T15:37:18;37.27;;;25.53;;
3280;SDS011;1652;51.318;6.202;2023-06-01T15:39:46;6.90;;;5.87;;
3280;SDS011;1652;51.318;6.202;2023-06-01T15:42:13;11.30;;;5.60;;
3280;SDS011;1652;51.318;6.202;2023-06-01T15:44:40;18.00;;;7.50;;
3280;SDS011;1652;51.318;6.202;2023-06-01T15:47:09;10.87;;;5.57;;
3280;SDS011;1652;51.318;6.202;2023-06-01T15:49:40;6.20;;;5.70;;
3280;SDS011;1652;51.318;6.202;2023-06-01T15:52:08;11.70;;;5.70;;
3280;SDS011;1652;51.318;6.202;2023-06-01T15:54:35;11.70;;;6.20;;